Cuckfield, United Kingdom
Current Conditions -  °F | °C
As of 4:20 AM on Monday 26 Jan 2015 (Local Time) from EGKK Reporting Station
Broken Clouds Broken Clouds  
Wind Chill: 44°   Ceiling: 1200
Heat Index: 48°   Visibility: 6mi
Dew Point: 46°   Wind: 9mph
Humidity: 93%   Direction: 240°WSW
Pressure: 30.21"   Gusts: NA
Location:  51.01°N, 0.14°W
Report Text: EGKK 260420Z 24008KT 9999 BKN012 09/08 Q1023
Loading
Personal Weather Stations






























Interactive Weather Map New forecast layout! Learn more

10-Day Weather Forecast

Advertisements
Track Severe Weather on mobile